sensor_id;sensor_type;location;lat;lon;timestamp;P1;durP1;ratioP1;P2;durP2;ratioP2
10617;SDS011;5356;43.526;26.534;2024-03-23T00:53:52;16.58;;;9.10;;
10617;SDS011;5356;43.526;26.534;2024-03-23T00:56:18;18.27;;;9.60;;
10617;SDS011;5356;43.526;26.534;2024-03-23T00:58:43;16.00;;;9.32;;
10617;SDS011;5356;43.526;26.534;2024-03-23T01:01:09;19.38;;;7.97;;
10617;SDS011;5356;43.526;26.534;2024-03-23T01:03:34;15.98;;;7.65;;
10617;SDS011;5356;43.526;26.534;2024-03-23T01:06:00;17.27;;;7.47;;
10617;SDS011;5356;43.526;26.534;2024-03-23T01:08:26;16.58;;;8.27;;
10617;SDS011;5356;43.526;26.534;2024-03-23T01:10:58;17.25;;;9.10;;
10617;SDS011;5356;43.526;26.534;2024-03-23T01:13:25;19.98;;;9.23;;
10617;SDS011;5356;43.526;26.534;2024-03-23T01:15:51;18.20;;;9.10;;
10617;SDS011;5356;43.526;26.534;2024-03-23T01:18:18;15.48;;;8.55;;
10617;SDS011;5356;43.526;26.534;2024-03-23T01:20:44;15.95;;;8.20;;
10617;SDS011;5356;43.526;26.534;2024-03-23T01:23:10;16.40;;;8.18;;
10617;SDS011;5356;43.526;26.534;2024-03-23T01:25:36;18.65;;;8.05;;
10617;SDS011;5356;43.526;26.534;2024-03-23T01:28:01;17.73;;;8.00;;
10617;SDS011;5356;43.526;26.534;2024-03-23T01:30:27;21.17;;;9.02;;
10617;SDS011;5356;43.526;26.534;2024-03-23T01:32:52;25.33;;;10.63;;
10617;SDS011;5356;43.526;26.534;2024-03-23T01:35:18;24.73;;;10.32;;
10617;SDS011;5356;43.526;26.534;2024-03-23T01:37:44;21.98;;;10.43;;
10617;SDS011;5356;43.526;26.534;2024-03-23T01:40:10;21.38;;;11.32;;
10617;SDS011;5356;43.526;26.534;2024-03-23T01:42:38;18.38;;;8.95;;
10617;SDS011;5356;43.526;26.534;2024-03-23T01:45:05;18.15;;;9.13;;
10617;SDS011;5356;43.526;26.534;2024-03-23T01:47:33;15.35;;;8.73;;
10617;SDS011;5356;43.526;26.534;2024-03-23T01:49:58;14.93;;;7.53;;
10617;SDS011;5356;43.526;26.534;2024-03-23T01:52:24;17.30;;;8.77;;
10617;SDS011;5356;43.526;26.534;2024-03-23T01:54:50;16.42;;;8.40;;
10617;SDS011;5356;43.526;26.534;2024-03-23T01:57:16;17.27;;;7.43;;
10617;SDS011;5356;43.526;26.534;2024-03-23T01:59:42;18.52;;;8.88;;
10617;SDS011;5356;43.526;26.534;2024-03-23T02:02:07;18.25;;;8.20;;
10617;SDS011;5356;43.526;26.534;2024-03-23T02:04:33;14.43;;;8.73;;
10617;SDS011;5356;43.526;26.534;2024-03-23T02:06:58;14.07;;;7.85;;
10617;SDS011;5356;43.526;26.534;2024-03-23T02:09:24;18.67;;;7.88;;
10617;SDS011;5356;43.526;26.534;2024-03-23T02:11:50;16.33;;;9.07;;
10617;SDS011;5356;43.526;26.534;2024-03-23T02:14:15;19.42;;;9.65;;
10617;SDS011;5356;43.526;26.534;2024-03-23T02:16:42;16.77;;;9.25;;
10617;SDS011;5356;43.526;26.534;2024-03-23T02:19:08;20.08;;;9.30;;
10617;SDS011;5356;43.526;26.534;2024-03-23T02:21:33;14.55;;;7.90;;
10617;SDS011;5356;43.526;26.534;2024-03-23T02:23:59;17.10;;;8.98;;
10617;SDS011;5356;43.526;26.534;2024-03-23T02:26:25;15.43;;;8.35;;
10617;SDS011;5356;43.526;26.534;2024-03-23T02:28:51;17.48;;;7.57;;
10617;SDS011;5356;43.526;26.534;2024-03-23T02:31:16;13.93;;;7.68;;
10617;SDS011;5356;43.526;26.534;2024-03-23T02:33:42;14.02;;;6.63;;
10617;SDS011;5356;43.526;26.534;2024-03-23T02:36:07;13.45;;;6.85;;
10617;SDS011;5356;43.526;26.534;2024-03-23T02:38:33;11.90;;;7.53;;
10617;SDS011;5356;43.526;26.534;2024-03-23T02:41:04;12.65;;;6.63;;
10617;SDS011;5356;43.526;26.534;2024-03-23T02:43:30;11.52;;;6.97;;
10617;SDS011;5356;43.526;26.534;2024-03-23T02:45:56;14.30;;;7.18;;
10617;SDS011;5356;43.526;26.534;2024-03-23T02:48:22;14.88;;;6.88;;
10617;SDS011;5356;43.526;26.534;2024-03-23T02:50:48;14.95;;;6.97;;
10617;SDS011;5356;43.526;26.534;2024-03-23T02:53:13;14.85;;;7.07;;
10617;SDS011;5356;43.526;26.534;2024-03-23T02:55:38;12.88;;;7.20;;
10617;SDS011;5356;43.526;26.534;2024-03-23T02:58:04;19.92;;;9.05;;
10617;SDS011;5356;43.526;26.534;2024-03-23T03:00:30;17.63;;;7.50;;
10617;SDS011;5356;43.526;26.534;2024-03-23T03:02:55;13.95;;;7.43;;
10617;SDS011;5356;43.526;26.534;2024-03-23T03:05:21;15.48;;;7.18;;
10617;SDS011;5356;43.526;26.534;2024-03-23T03:07:46;14.50;;;7.93;;
10617;SDS011;5356;43.526;26.534;2024-03-23T03:10:12;13.65;;;8.10;;
10617;SDS011;5356;43.526;26.534;2024-03-23T03:12:37;14.30;;;7.57;;
10617;SDS011;5356;43.526;26.534;2024-03-23T03:15:06;13.35;;;6.65;;
10617;SDS011;5356;43.526;26.534;2024-03-23T03:17:33;14.98;;;6.78;;
10617;SDS011;5356;43.526;26.534;2024-03-23T03:19:58;13.48;;;7.93;;
10617;SDS011;5356;43.526;26.534;2024-03-23T03:22:24;13.70;;;6.88;;
10617;SDS011;5356;43.526;26.534;2024-03-23T03:24:50;11.85;;;7.53;;
10617;SDS011;5356;43.526;26.534;2024-03-23T03:27:15;12.63;;;7.15;;
10617;SDS011;5356;43.526;26.534;2024-03-23T03:29:41;13.45;;;6.97;;
10617;SDS011;5356;43.526;26.534;2024-03-23T03:32:06;13.20;;;7.10;;
10617;SDS011;5356;43.526;26.534;2024-03-23T03:34:32;15.63;;;7.22;;
10617;SDS011;5356;43.526;26.534;2024-03-23T03:36:58;12.70;;;6.85;;
10617;SDS011;5356;43.526;26.534;2024-03-23T03:39:24;14.25;;;7.38;;
10617;SDS011;5356;43.526;26.534;2024-03-23T03:41:50;13.75;;;7.18;;
10617;SDS011;5356;43.526;26.534;2024-03-23T03:44:16;17.65;;;8.35;;
10617;SDS011;5356;43.526;26.534;2024-03-23T03:46:42;15.65;;;7.40;;
10617;SDS011;5356;43.526;26.534;2024-03-23T03:49:08;18.40;;;7.80;;
10617;SDS011;5356;43.526;26.534;2024-03-23T03:51:33;13.40;;;7.70;;
10617;SDS011;5356;43.526;26.534;2024-03-23T03:53:59;15.90;;;7.50;;
10617;SDS011;5356;43.526;26.534;2024-03-23T03:56:24;14.40;;;8.55;;
10617;SDS011;5356;43.526;26.534;2024-03-23T03:58:50;14.45;;;7.75;;
10617;SDS011;5356;43.526;26.534;2024-03-23T04:01:15;15.57;;;7.32;;
10617;SDS011;5356;43.526;26.534;2024-03-23T04:03:41;13.13;;;7.32;;
10617;SDS011;5356;43.526;26.534;2024-03-23T04:06:11;13.43;;;7.05;;
10617;SDS011;5356;43.526;26.534;2024-03-23T04:08:37;15.32;;;7.82;;
10617;SDS011;5356;43.526;26.534;2024-03-23T04:11:03;19.33;;;8.85;;
10617;SDS011;5356;43.526;26.534;2024-03-23T04:13:28;16.58;;;7.82;;
10617;SDS011;5356;43.526;26.534;2024-03-23T04:15:54;16.70;;;7.40;;
10617;SDS011;5356;43.526;26.534;2024-03-23T04:18:20;15.65;;;7.80;;
10617;SDS011;5356;43.526;26.534;2024-03-23T04:20:46;12.40;;;6.68;;
10617;SDS011;5356;43.526;26.534;2024-03-23T04:23:12;16.05;;;8.10;;
10617;SDS011;5356;43.526;26.534;2024-03-23T04:25:38;15.82;;;7.88;;
10617;SDS011;5356;43.526;26.534;2024-03-23T04:28:03;14.25;;;7.30;;
10617;SDS011;5356;43.526;26.534;2024-03-23T04:30:29;14.73;;;7.85;;
10617;SDS011;5356;43.526;26.534;2024-03-23T04:32:55;18.77;;;9.02;;
10617;SDS011;5356;43.526;26.534;2024-03-23T04:35:21;14.20;;;8.45;;
10617;SDS011;5356;43.526;26.534;2024-03-23T04:37:50;19.85;;;9.10;;
10617;SDS011;5356;43.526;26.534;2024-03-23T04:40:17;16.13;;;8.73;;
10617;SDS011;5356;43.526;26.534;2024-03-23T04:42:42;17.10;;;8.30;;
10617;SDS011;5356;43.526;26.534;2024-03-23T04:45:08;17.20;;;8.65;;
10617;SDS011;5356;43.526;26.534;2024-03-23T04:47:35;18.88;;;8.73;;
10617;SDS011;5356;43.526;26.534;2024-03-23T04:50:02;15.25;;;8.20;;
10617;SDS011;5356;43.526;26.534;2024-03-23T04:52:28;20.00;;;10.43;;
10617;SDS011;5356;43.526;26.534;2024-03-23T04:54:54;21.63;;;9.07;;
10617;SDS011;5356;43.526;26.534;2024-03-23T04:57:20;17.35;;;8.90;;
10617;SDS011;5356;43.526;26.534;2024-03-23T04:59:45;17.55;;;8.18;;
10617;SDS011;5356;43.526;26.534;2024-03-23T05:02:12;16.23;;;8.93;;
10617;SDS011;5356;43.526;26.534;2024-03-23T05:04:37;18.23;;;8.90;;
10617;SDS011;5356;43.526;26.534;2024-03-23T05:07:03;19.38;;;10.27;;
10617;SDS011;5356;43.526;26.534;2024-03-23T05:09:29;15.68;;;8.65;;
10617;SDS011;5356;43.526;26.534;2024-03-23T05:11:58;22.38;;;10.55;;
10617;SDS011;5356;43.526;26.534;2024-03-23T05:14:26;18.98;;;10.50;;
10617;SDS011;5356;43.526;26.534;2024-03-23T05:16:52;20.10;;;10.25;;
10617;SDS011;5356;43.526;26.534;2024-03-23T05:19:18;16.63;;;8.60;;
10617;SDS011;5356;43.526;26.534;2024-03-23T05:21:43;15.85;;;8.52;;
10617;SDS011;5356;43.526;26.534;2024-03-23T05:24:09;18.75;;;8.65;;
10617;SDS011;5356;43.526;26.534;2024-03-23T05:26:35;15.73;;;8.77;;
10617;SDS011;5356;43.526;26.534;2024-03-23T05:29:01;17.20;;;8.90;;
10617;SDS011;5356;43.526;26.534;2024-03-23T05:31:27;17.38;;;8.07;;
10617;SDS011;5356;43.526;26.534;2024-03-23T05:33:53;16.58;;;8.93;;
10617;SDS011;5356;43.526;26.534;2024-03-23T05:36:19;16.15;;;8.35;;
10617;SDS011;5356;43.526;26.534;2024-03-23T05:38:45;22.25;;;9.77;;
10617;SDS011;5356;43.526;26.534;2024-03-23T05:41:10;79.68;;;28.30;;
10617;SDS011;5356;43.526;26.534;2024-03-23T05:43:36;117.03;;;40.80;;
10617;SDS011;5356;43.526;26.534;2024-03-23T05:46:01;58.38;;;28.00;;
10617;SDS011;5356;43.526;26.534;2024-03-23T05:48:28;54.42;;;27.65;;
10617;SDS011;5356;43.526;26.534;2024-03-23T05:50:55;18.35;;;11.00;;
10617;SDS011;5356;43.526;26.534;2024-03-23T05:53:21;19.10;;;10.13;;
10617;SDS011;5356;43.526;26.534;2024-03-23T05:55:47;24.30;;;10.80;;
10617;SDS011;5356;43.526;26.534;2024-03-23T05:58:14;128.48;;;48.15;;
10617;SDS011;5356;43.526;26.534;2024-03-23T06:00:40;198.77;;;72.68;;
10617;SDS011;5356;43.526;26.534;2024-03-23T06:03:07;110.30;;;43.88;;
10617;SDS011;5356;43.526;26.534;2024-03-23T06:05:32;111.00;;;48.92;;
10617;SDS011;5356;43.526;26.534;2024-03-23T06:07:58;33.17;;;16.90;;
10617;SDS011;5356;43.526;26.534;2024-03-23T06:10:23;23.25;;;13.50;;
10617;SDS011;5356;43.526;26.534;2024-03-23T06:12:49;29.73;;;13.95;;
10617;SDS011;5356;43.526;26.534;2024-03-23T06:15:17;18.48;;;10.05;;
10617;SDS011;5356;43.526;26.534;2024-03-23T06:17:43;32.20;;;17.75;;
10617;SDS011;5356;43.526;26.534;2024-03-23T06:20:09;35.97;;;23.63;;
10617;SDS011;5356;43.526;26.534;2024-03-23T06:22:35;44.47;;;21.98;;
10617;SDS011;5356;43.526;26.534;2024-03-23T06:25:00;29.98;;;14.90;;
10617;SDS011;5356;43.526;26.534;2024-03-23T06:27:26;28.75;;;14.55;;
10617;SDS011;5356;43.526;26.534;2024-03-23T06:29:51;42.30;;;20.65;;
10617;SDS011;5356;43.526;26.534;2024-03-23T06:32:17;33.60;;;18.48;;
10617;SDS011;5356;43.526;26.534;2024-03-23T06:34:43;30.52;;;16.20;;
10617;SDS011;5356;43.526;26.534;2024-03-23T06:37:09;25.80;;;13.18;;
10617;SDS011;5356;43.526;26.534;2024-03-23T06:39:38;21.27;;;11.20;;
10617;SDS011;5356;43.526;26.534;2024-03-23T06:42:04;27.90;;;16.48;;
10617;SDS011;5356;43.526;26.534;2024-03-23T06:44:30;24.58;;;13.32;;
10617;SDS011;5356;43.526;26.534;2024-03-23T06:46:56;18.73;;;10.80;;
10617;SDS011;5356;43.526;26.534;2024-03-23T06:49:22;34.55;;;18.27;;
10617;SDS011;5356;43.526;26.534;2024-03-23T06:51:48;31.98;;;17.92;;
10617;SDS011;5356;43.526;26.534;2024-03-23T06:54:14;20.15;;;12.52;;
10617;SDS011;5356;43.526;26.534;2024-03-23T06:56:39;23.13;;;12.40;;
10617;SDS011;5356;43.526;26.534;2024-03-23T06:59:05;18.85;;;10.75;;
10617;SDS011;5356;43.526;26.534;2024-03-23T07:01:31;17.85;;;10.27;;
10617;SDS011;5356;43.526;26.534;2024-03-23T07:03:56;28.45;;;13.25;;
10617;SDS011;5356;43.526;26.534;2024-03-23T07:06:22;17.08;;;8.95;;
10617;SDS011;5356;43.526;26.534;2024-03-23T07:08:47;106.75;;;59.10;;
10617;SDS011;5356;43.526;26.534;2024-03-23T07:11:19;47.95;;;30.58;;
10617;SDS011;5356;43.526;26.534;2024-03-23T07:13:45;18.75;;;13.55;;
10617;SDS011;5356;43.526;26.534;2024-03-23T07:16:12;16.63;;;8.77;;
10617;SDS011;5356;43.526;26.534;2024-03-23T07:18:38;31.13;;;11.88;;
10617;SDS011;5356;43.526;26.534;2024-03-23T07:21:04;14.68;;;7.18;;
10617;SDS011;5356;43.526;26.534;2024-03-23T07:23:31;14.77;;;9.00;;
10617;SDS011;5356;43.526;26.534;2024-03-23T07:25:57;22.50;;;10.32;;
10617;SDS011;5356;43.526;26.534;2024-03-23T07:28:33;24.63;;;12.48;;
10617;SDS011;5356;43.526;26.534;2024-03-23T07:33:28;10.57;;;6.47;;
10617;SDS011;5356;43.526;26.534;2024-03-23T07:35:53;10.93;;;6.20;;
10617;SDS011;5356;43.526;26.534;2024-03-23T07:38:19;13.02;;;6.90;;
10617;SDS011;5356;43.526;26.534;2024-03-23T07:40:44;13.73;;;8.35;;
10617;SDS011;5356;43.526;26.534;2024-03-23T07:43:10;13.02;;;7.68;;
10617;SDS011;5356;43.526;26.534;2024-03-23T07:45:35;13.43;;;8.00;;
10617;SDS011;5356;43.526;26.534;2024-03-23T07:48:03;9.48;;;5.88;;
10617;SDS011;5356;43.526;26.534;2024-03-23T07:50:28;11.45;;;6.53;;
10617;SDS011;5356;43.526;26.534;2024-03-23T07:52:54;10.52;;;6.60;;
10617;SDS011;5356;43.526;26.534;2024-03-23T07:55:19;10.82;;;5.95;;
10617;SDS011;5356;43.526;26.534;2024-03-23T07:57:46;9.88;;;6.43;;
10617;SDS011;5356;43.526;26.534;2024-03-23T08:00:12;8.50;;;5.10;;
10617;SDS011;5356;43.526;26.534;2024-03-23T08:02:38;7.72;;;5.05;;
10617;SDS011;5356;43.526;26.534;2024-03-23T08:05:04;10.32;;;4.88;;
10617;SDS011;5356;43.526;26.534;2024-03-23T08:07:29;4.35;;;3.35;;
10617;SDS011;5356;43.526;26.534;2024-03-23T08:09:55;5.10;;;3.67;;
10617;SDS011;5356;43.526;26.534;2024-03-23T08:12:20;5.30;;;3.03;;
10617;SDS011;5356;43.526;26.534;2024-03-23T08:14:45;6.43;;;2.92;;
10617;SDS011;5356;43.526;26.534;2024-03-23T08:17:11;5.50;;;4.00;;
10617;SDS011;5356;43.526;26.534;2024-03-23T08:19:36;7.57;;;3.92;;
10617;SDS011;5356;43.526;26.534;2024-03-23T08:22:02;4.35;;;2.90;;
10617;SDS011;5356;43.526;26.534;2024-03-23T08:24:27;3.03;;;2.40;;
10617;SDS011;5356;43.526;26.534;2024-03-23T08:26:54;4.32;;;3.15;;
10617;SDS011;5356;43.526;26.534;2024-03-23T08:29:19;3.15;;;2.70;;
10617;SDS011;5356;43.526;26.534;2024-03-23T08:31:45;6.65;;;2.80;;
10617;SDS011;5356;43.526;26.534;2024-03-23T08:34:10;3.83;;;3.00;;
10617;SDS011;5356;43.526;26.534;2024-03-23T08:36:36;3.72;;;2.40;;
10617;SDS011;5356;43.526;26.534;2024-03-23T08:39:01;3.60;;;2.60;;
10617;SDS011;5356;43.526;26.534;2024-03-23T08:41:27;3.47;;;2.63;;
10617;SDS011;5356;43.526;26.534;2024-03-23T08:43:52;3.88;;;2.83;;
10617;SDS011;5356;43.526;26.534;2024-03-23T08:46:18;4.28;;;2.63;;
10617;SDS011;5356;43.526;26.534;2024-03-23T08:48:44;6.10;;;3.40;;
10617;SDS011;5356;43.526;26.534;2024-03-23T08:51:11;5.88;;;3.72;;
10617;SDS011;5356;43.526;26.534;2024-03-23T08:53:38;13.77;;;6.90;;
10617;SDS011;5356;43.526;26.534;2024-03-23T08:56:04;8.77;;;5.13;;
10617;SDS011;5356;43.526;26.534;2024-03-23T08:58:31;4.60;;;3.25;;
10617;SDS011;5356;43.526;26.534;2024-03-23T09:01:05;4.35;;;3.20;;
10617;SDS011;5356;43.526;26.534;2024-03-23T09:03:32;7.78;;;3.55;;
10617;SDS011;5356;43.526;26.534;2024-03-23T09:05:59;6.38;;;4.57;;
10617;SDS011;5356;43.526;26.534;2024-03-23T09:08:24;5.30;;;3.83;;
10617;SDS011;5356;43.526;26.534;2024-03-23T09:10:50;8.63;;;5.47;;
10617;SDS011;5356;43.526;26.534;2024-03-23T09:13:16;7.72;;;5.40;;
10617;SDS011;5356;43.526;26.534;2024-03-23T09:15:48;23.27;;;12.25;;
10617;SDS011;5356;43.526;26.534;2024-03-23T09:18:15;6.20;;;4.47;;
10617;SDS011;5356;43.526;26.534;2024-03-23T09:20:41;6.75;;;4.72;;
10617;SDS011;5356;43.526;26.534;2024-03-23T09:23:06;7.50;;;4.40;;
10617;SDS011;5356;43.526;26.534;2024-03-23T09:25:32;6.13;;;4.68;;
10617;SDS011;5356;43.526;26.534;2024-03-23T09:28:00;13.20;;;6.45;;
10617;SDS011;5356;43.526;26.534;2024-03-23T09:30:26;6.20;;;4.25;;
10617;SDS011;5356;43.526;26.534;2024-03-23T09:32:51;6.10;;;3.65;;
10617;SDS011;5356;43.526;26.534;2024-03-23T09:35:17;6.70;;;3.75;;
10617;SDS011;5356;43.526;26.534;2024-03-23T09:37:42;5.05;;;3.72;;
10617;SDS011;5356;43.526;26.534;2024-03-23T09:40:10;7.38;;;4.10;;
10617;SDS011;5356;43.526;26.534;2024-03-23T09:42:36;6.65;;;3.58;;
10617;SDS011;5356;43.526;26.534;2024-03-23T09:45:02;6.70;;;3.88;;
10617;SDS011;5356;43.526;26.534;2024-03-23T09:47:35;7.32;;;4.60;;
10617;SDS011;5356;43.526;26.534;2024-03-23T09:50:01;5.40;;;3.70;;
10617;SDS011;5356;43.526;26.534;2024-03-23T09:52:26;6.40;;;3.88;;
10617;SDS011;5356;43.526;26.534;2024-03-23T09:54:52;4.78;;;3.45;;
10617;SDS011;5356;43.526;26.534;2024-03-23T09:57:17;8.32;;;4.68;;
10617;SDS011;5356;43.526;26.534;2024-03-23T09:59:43;7.07;;;4.05;;
10617;SDS011;5356;43.526;26.534;2024-03-23T10:02:08;5.97;;;3.92;;
10617;SDS011;5356;43.526;26.534;2024-03-23T10:04:39;11.73;;;5.40;;
10617;SDS011;5356;43.526;26.534;2024-03-23T10:07:15;11.02;;;5.85;;
10617;SDS011;5356;43.526;26.534;2024-03-23T10:09:43;6.70;;;3.92;;
10617;SDS011;5356;43.526;26.534;2024-03-23T10:12:09;5.57;;;3.22;;
10617;SDS011;5356;43.526;26.534;2024-03-23T10:14:41;6.10;;;3.60;;
10617;SDS011;5356;43.526;26.534;2024-03-23T10:17:11;6.93;;;3.90;;
10617;SDS011;5356;43.526;26.534;2024-03-23T10:19:38;9.88;;;5.38;;
10617;SDS011;5356;43.526;26.534;2024-03-23T10:22:04;10.23;;;6.57;;
10617;SDS011;5356;43.526;26.534;2024-03-23T10:24:29;9.85;;;5.63;;
10617;SDS011;5356;43.526;26.534;2024-03-23T10:26:58;11.25;;;6.80;;
10617;SDS011;5356;43.526;26.534;2024-03-23T10:29:23;4.90;;;3.28;;
10617;SDS011;5356;43.526;26.534;2024-03-23T10:31:52;12.57;;;5.07;;
10617;SDS011;5356;43.526;26.534;2024-03-23T10:34:24;6.18;;;3.20;;
10617;SDS011;5356;43.526;26.534;2024-03-23T10:36:52;4.32;;;2.92;;
10617;SDS011;5356;43.526;26.534;2024-03-23T10:39:18;7.75;;;3.65;;
10617;SDS011;5356;43.526;26.534;2024-03-23T10:41:49;23.60;;;10.65;;
10617;SDS011;5356;43.526;26.534;2024-03-23T10:44:17;5.82;;;3.83;;
10617;SDS011;5356;43.526;26.534;2024-03-23T10:46:45;6.07;;;3.63;;
10617;SDS011;5356;43.526;26.534;2024-03-23T10:49:10;20.17;;;9.38;;
10617;SDS011;5356;43.526;26.534;2024-03-23T10:51:36;7.82;;;4.70;;
10617;SDS011;5356;43.526;26.534;2024-03-23T10:54:04;24.23;;;11.85;;
10617;SDS011;5356;43.526;26.534;2024-03-23T10:56:38;4.03;;;3.17;;
10617;SDS011;5356;43.526;26.534;2024-03-23T10:59:05;4.55;;;2.85;;
10617;SDS011;5356;43.526;26.534;2024-03-23T11:01:32;8.38;;;5.63;;
10617;SDS011;5356;43.526;26.534;2024-03-23T11:03:58;8.02;;;5.15;;
10617;SDS011;5356;43.526;26.534;2024-03-23T11:06:34;4.20;;;3.50;;
10617;SDS011;5356;43.526;26.534;2024-03-23T11:09:03;4.97;;;3.33;;
10617;SDS011;5356;43.526;26.534;2024-03-23T11:11:28;4.57;;;2.85;;
10617;SDS011;5356;43.526;26.534;2024-03-23T11:13:56;4.47;;;3.63;;
10617;SDS011;5356;43.526;26.534;2024-03-23T11:16:26;6.60;;;4.85;;
10617;SDS011;5356;43.526;26.534;2024-03-23T11:35:31;4.03;;;2.90;;
10617;SDS011;5356;43.526;26.534;2024-03-23T11:38:14;4.80;;;2.92;;
10617;SDS011;5356;43.526;26.534;2024-03-23T11:40:41;3.05;;;2.50;;
10617;SDS011;5356;43.526;26.534;2024-03-23T11:43:11;6.35;;;3.05;;
10617;SDS011;5356;43.526;26.534;2024-03-23T11:45:45;3.17;;;2.63;;
10617;SDS011;5356;43.526;26.534;2024-03-23T11:48:13;9.18;;;4.85;;
10617;SDS011;5356;43.526;26.534;2024-03-23T11:50:42;13.30;;;3.92;;
10617;SDS011;5356;43.526;26.534;2024-03-23T11:53:15;3.33;;;2.53;;
10617;SDS011;5356;43.526;26.534;2024-03-23T11:58:16;6.28;;;4.55;;
10617;SDS011;5356;43.526;26.534;2024-03-23T12:00:43;5.97;;;4.68;;
10617;SDS011;5356;43.526;26.534;2024-03-23T12:03:16;4.15;;;2.55;;
10617;SDS011;5356;43.526;26.534;2024-03-23T12:05:47;7.38;;;4.50;;
10617;SDS011;5356;43.526;26.534;2024-03-23T12:11:08;7.13;;;4.80;;
10617;SDS011;5356;43.526;26.534;2024-03-23T12:13:37;8.50;;;5.72;;
10617;SDS011;5356;43.526;26.534;2024-03-23T12:16:12;8.98;;;7.13;;
10617;SDS011;5356;43.526;26.534;2024-03-23T12:18:40;4.30;;;3.63;;
10617;SDS011;5356;43.526;26.534;2024-03-23T12:21:07;6.28;;;3.55;;
10617;SDS011;5356;43.526;26.534;2024-03-23T12:23:33;10.38;;;6.22;;
10617;SDS011;5356;43.526;26.534;2024-03-23T12:25:59;4.97;;;3.85;;
10617;SDS011;5356;43.526;26.534;2024-03-23T12:28:25;4.80;;;3.55;;
10617;SDS011;5356;43.526;26.534;2024-03-23T12:30:51;10.23;;;7.15;;
10617;SDS011;5356;43.526;26.534;2024-03-23T12:33:22;6.40;;;4.38;;
10617;SDS011;5356;43.526;26.534;2024-03-23T12:35:48;5.45;;;3.83;;
10617;SDS011;5356;43.526;26.534;2024-03-23T12:38:14;15.00;;;11.15;;
10617;SDS011;5356;43.526;26.534;2024-03-23T12:40:39;9.23;;;6.82;;
10617;SDS011;5356;43.526;26.534;2024-03-23T12:43:06;4.18;;;3.00;;
10617;SDS011;5356;43.526;26.534;2024-03-23T12:49:08;5.75;;;3.40;;
10617;SDS011;5356;43.526;26.534;2024-03-23T12:51:36;6.07;;;3.15;;
10617;SDS011;5356;43.526;26.534;2024-03-23T12:54:36;4.80;;;3.63;;
10617;SDS011;5356;43.526;26.534;2024-03-23T12:57:06;9.65;;;3.53;;
10617;SDS011;5356;43.526;26.534;2024-03-23T12:59:43;6.70;;;3.22;;
10617;SDS011;5356;43.526;26.534;2024-03-23T13:14:54;5.88;;;4.05;;
10617;SDS011;5356;43.526;26.534;2024-03-23T13:17:20;4.50;;;3.63;;
10617;SDS011;5356;43.526;26.534;2024-03-23T13:19:45;4.32;;;3.75;;
10617;SDS011;5356;43.526;26.534;2024-03-23T13:22:10;3.50;;;2.70;;
10617;SDS011;5356;43.526;26.534;2024-03-23T13:24:36;10.77;;;9.73;;
10617;SDS011;5356;43.526;26.534;2024-03-23T13:27:02;9.52;;;4.00;;
10617;SDS011;5356;43.526;26.534;2024-03-23T13:29:29;5.03;;;3.35;;
10617;SDS011;5356;43.526;26.534;2024-03-23T13:31:55;3.40;;;2.88;;
10617;SDS011;5356;43.526;26.534;2024-03-23T13:34:20;4.93;;;3.15;;
10617;SDS011;5356;43.526;26.534;2024-03-23T13:36:46;2.53;;;2.20;;
10617;SDS011;5356;43.526;26.534;2024-03-23T13:39:12;6.00;;;3.17;;
10617;SDS011;5356;43.526;26.534;2024-03-23T13:41:39;2.83;;;2.38;;
10617;SDS011;5356;43.526;26.534;2024-03-23T13:44:09;2.97;;;2.47;;
10617;SDS011;5356;43.526;26.534;2024-03-23T13:46:36;4.78;;;3.53;;
10617;SDS011;5356;43.526;26.534;2024-03-23T13:49:01;18.15;;;11.93;;
10617;SDS011;5356;43.526;26.534;2024-03-23T13:51:28;5.47;;;3.88;;
10617;SDS011;5356;43.526;26.534;2024-03-23T13:53:54;4.05;;;2.80;;
10617;SDS011;5356;43.526;26.534;2024-03-23T13:56:21;4.68;;;3.30;;
10617;SDS011;5356;43.526;26.534;2024-03-23T13:58:47;4.03;;;2.78;;
10617;SDS011;5356;43.526;26.534;2024-03-23T14:01:15;34.05;;;17.42;;
10617;SDS011;5356;43.526;26.534;2024-03-23T14:03:42;4.80;;;3.70;;
10617;SDS011;5356;43.526;26.534;2024-03-23T14:06:08;3.40;;;3.00;;
10617;SDS011;5356;43.526;26.534;2024-03-23T14:08:34;5.57;;;2.90;;
10617;SDS011;5356;43.526;26.534;2024-03-23T14:11:06;2.65;;;2.05;;
10617;SDS011;5356;43.526;26.534;2024-03-23T14:13:32;4.22;;;2.15;;
10617;SDS011;5356;43.526;26.534;2024-03-23T14:15:58;4.55;;;3.63;;
10617;SDS011;5356;43.526;26.534;2024-03-23T14:18:24;5.72;;;3.13;;
10617;SDS011;5356;43.526;26.534;2024-03-23T14:20:51;5.10;;;2.80;;
10617;SDS011;5356;43.526;26.534;2024-03-23T14:23:18;4.10;;;2.90;;
10617;SDS011;5356;43.526;26.534;2024-03-23T14:25:44;6.13;;;5.28;;
10617;SDS011;5356;43.526;26.534;2024-03-23T14:28:10;7.00;;;3.85;;
10617;SDS011;5356;43.526;26.534;2024-03-23T14:30:39;4.38;;;2.78;;
10617;SDS011;5356;43.526;26.534;2024-03-23T14:33:07;3.65;;;2.83;;
10617;SDS011;5356;43.526;26.534;2024-03-23T14:35:33;11.27;;;10.07;;
10617;SDS011;5356;43.526;26.534;2024-03-23T14:37:58;5.80;;;4.55;;
10617;SDS011;5356;43.526;26.534;2024-03-23T14:40:24;4.63;;;2.50;;
10617;SDS011;5356;43.526;26.534;2024-03-23T14:42:53;4.32;;;3.03;;
10617;SDS011;5356;43.526;26.534;2024-03-23T14:45:21;3.67;;;2.63;;
10617;SDS011;5356;43.526;26.534;2024-03-23T14:47:49;5.28;;;4.00;;
10617;SDS011;5356;43.526;26.534;2024-03-23T14:50:18;3.03;;;2.50;;
10617;SDS011;5356;43.526;26.534;2024-03-23T14:52:44;6.43;;;3.78;;
10617;SDS011;5356;43.526;26.534;2024-03-23T14:55:10;6.07;;;4.80;;
10617;SDS011;5356;43.526;26.534;2024-03-23T14:57:49;4.50;;;3.20;;
10617;SDS011;5356;43.526;26.534;2024-03-23T15:03:07;4.50;;;1.80;;
10617;SDS011;5356;43.526;26.534;2024-03-23T15:05:32;5.88;;;2.67;;
10617;SDS011;5356;43.526;26.534;2024-03-23T15:07:58;8.20;;;2.88;;
10617;SDS011;5356;43.526;26.534;2024-03-23T15:10:24;3.95;;;2.95;;
10617;SDS011;5356;43.526;26.534;2024-03-23T15:12:49;4.32;;;2.05;;
10617;SDS011;5356;43.526;26.534;2024-03-23T15:15:14;3.22;;;2.92;;
10617;SDS011;5356;43.526;26.534;2024-03-23T15:17:40;3.78;;;1.92;;
10617;SDS011;5356;43.526;26.534;2024-03-23T15:20:09;7.68;;;5.72;;
10617;SDS011;5356;43.526;26.534;2024-03-23T15:22:36;8.23;;;7.00;;
10617;SDS011;5356;43.526;26.534;2024-03-23T15:25:02;14.20;;;11.57;;
10617;SDS011;5356;43.526;26.534;2024-03-23T15:27:28;13.75;;;9.65;;
10617;SDS011;5356;43.526;26.534;2024-03-23T15:29:53;17.45;;;13.63;;
10617;SDS011;5356;43.526;26.534;2024-03-23T15:32:21;16.88;;;11.65;;
10617;SDS011;5356;43.526;26.534;2024-03-23T15:34:47;30.55;;;21.05;;
10617;SDS011;5356;43.526;26.534;2024-03-23T15:37:12;45.97;;;31.15;;
10617;SDS011;5356;43.526;26.534;2024-03-23T15:39:38;21.30;;;14.32;;
10617;SDS011;5356;43.526;26.534;2024-03-23T15:42:03;19.30;;;11.55;;
10617;SDS011;5356;43.526;26.534;2024-03-23T15:44:29;23.85;;;14.55;;
10617;SDS011;5356;43.526;26.534;2024-03-23T15:46:55;20.30;;;13.05;;
10617;SDS011;5356;43.526;26.534;2024-03-23T15:49:20;14.65;;;9.60;;
10617;SDS011;5356;43.526;26.534;2024-03-23T15:51:46;26.70;;;16.77;;
10617;SDS011;5356;43.526;26.534;2024-03-23T15:54:12;34.05;;;20.02;;
10617;SDS011;5356;43.526;26.534;2024-03-23T15:56:38;43.15;;;25.48;;
10617;SDS011;5356;43.526;26.534;2024-03-23T15:59:03;38.03;;;22.35;;
10617;SDS011;5356;43.526;26.534;2024-03-23T16:01:34;21.38;;;10.82;;
10617;SDS011;5356;43.526;26.534;2024-03-23T16:04:00;23.35;;;12.90;;
10617;SDS011;5356;43.526;26.534;2024-03-23T16:06:28;15.60;;;10.00;;
10617;SDS011;5356;43.526;26.534;2024-03-23T16:08:54;21.33;;;12.68;;